Time,TemperatureF,DewpointF,PressureIn,WindDirection,WindDirectionDegrees,WindSpeedMPH,WindSpeedGustMPH,Humidity,HourlyPrecipIn,Conditions,Clouds,dailyrainin,SolarRadiationWatts/m^2,SoftwareType,DateUTC
2013-05-04 00:00:00,67.5,65.7,30.09,SSE,165,1.0,3.0,94,0.00,CLR,,0.00,0.0,WeatherDisplay:10.37,2013-05-03 14:00:00,
2013-05-04 00:05:00,67.3,65.2,30.09,South,176,0.0,2.0,93,0.00,CLR,,0.00,0.0,WeatherDisplay:10.37,2013-05-03 14:05:00,
2013-05-04 00:10:00,67.3,65.2,30.09,SE,145,2.0,4.0,93,0.00,CLR,,0.00,0.0,WeatherDisplay:10.37,2013-05-03 14:10:00,
2013-05-04 00:15:00,67.3,65.2,30.08,SE,135,3.0,5.0,93,0.00,CLR,,0.00,0.0,WeatherDisplay:10.37,2013-05-03 14:15:00,
2013-05-04 00:20:00,67.8,65.4,30.09,SE,132,3.0,6.0,92,0.00,CLR,,0.00,0.0,WeatherDisplay:10.37,2013-05-03 14:20:00,
2013-05-04 00:25:00,68.2,65.1,30.09,SE,132,3.0,6.0,90,0.00,CLR,,0.00,0.0,WeatherDisplay:10.37,2013-05-03 14:25:00,
2013-05-04 00:30:00,67.7,64.7,30.09,SSE,157,2.0,5.0,90,0.00,CLR,,0.00,0.0,WeatherDisplay:10.37,2013-05-03 14:30:00,
2013-05-04 00:35:00,67.3,64.6,30.09,South,180,3.0,4.0,91,0.00,CLR,,0.00,0.0,WeatherDisplay:10.37,2013-05-03 14:35:00,
2013-05-04 00:40:00,67.2,64.8,30.09,South,182,1.0,4.0,92,0.00,CLR,,0.00,0.0,WeatherDisplay:10.37,2013-05-03 14:40:00,
2013-05-04 00:45:00,67.1,64.7,30.08,South,178,1.0,3.0,92,0.00,CLR,,0.00,0.0,WeatherDisplay:10.37,2013-05-03 14:45:00,
2013-05-04 00:50:00,67.1,65.0,30.08,South,177,1.0,2.0,93,0.00,CLR,,0.00,0.0,WeatherDisplay:10.37,2013-05-03 14:50:00,
2013-05-04 00:55:00,67.3,65.2,30.08,SSE,153,1.0,3.0,93,0.00,CLR,,0.00,0.0,WeatherDisplay:10.37,2013-05-03 14:55:00,
2013-05-04 01:00:00,67.3,64.9,30.08,SE,135,1.0,2.0,92,0.00,CLR,,0.00,0.0,WeatherDisplay:10.37,2013-05-03 15:00:00,
2013-05-04 01:05:00,67.1,65.0,30.07,SSE,150,1.0,4.0,93,0.00,CLR,,0.00,0.0,WeatherDisplay:10.37,2013-05-03 15:05:00,
2013-05-04 01:10:00,67.4,65.3,30.08,ESE,122,3.0,6.0,93,0.00,CLR,,0.00,0.0,WeatherDisplay:10.37,2013-05-03 15:10:00,
2013-05-04 01:15:00,68.2,65.5,30.08,ESE,104,2.0,6.0,91,0.00,CLR,,0.00,0.0,WeatherDisplay:10.37,2013-05-03 15:15:00,
2013-05-04 01:20:00,68.7,65.7,30.08,ESE,103,3.0,5.0,90,0.00,CLR,,0.00,0.0,WeatherDisplay:10.37,2013-05-03 15:20:00,
2013-05-04 01:25:00,68.7,65.3,30.08,ESE,120,1.0,4.0,89,0.00,CLR,,0.00,0.0,WeatherDisplay:10.37,2013-05-03 15:25:00,
2013-05-04 01:30:00,67.7,64.7,30.08,SE,135,0.0,2.0,90,0.00,CLR,,0.00,0.0,WeatherDisplay:10.37,2013-05-03 15:30:00,
2013-05-04 01:35:00,67.0,63.9,30.08,SE,135,0.0,2.0,90,0.00,CLR,,0.00,0.0,WeatherDisplay:10.37,2013-05-03 15:35:00,
2013-05-04 01:40:00,66.4,64.0,30.08,SE,135,0.0,0.0,92,0.00,CLR,,0.00,0.0,WeatherDisplay:10.37,2013-05-03 15:40:00,
2013-05-04 01:45:00,65.9,64.4,30.08,SE,135,0.0,0.0,95,0.00,CLR,,0.00,0.0,WeatherDisplay:10.37,2013-05-03 15:45:00,
2013-05-04 01:50:00,65.7,64.2,30.07,SE,135,0.0,0.0,95,0.00,CLR,,0.00,0.0,WeatherDisplay:10.37,2013-05-03 15:50:00,
2013-05-04 01:55:00,65.6,64.4,30.07,SE,135,0.0,0.0,96,0.00,CLR,,0.00,0.0,WeatherDisplay:10.37,2013-05-03 15:55:00,
2013-05-04 02:00:00,65.1,64.0,30.07,SE,135,0.0,0.0,96,0.00,CLR,,0.00,0.0,WeatherDisplay:10.37,2013-05-03 16:00:00,
2013-05-04 02:05:00,64.9,63.7,30.07,SE,135,0.0,0.0,96,0.00,CLR,,0.00,0.0,WeatherDisplay:10.37,2013-05-03 16:05:00,
2013-05-04 02:10:00,64.6,63.5,30.07,SE,135,0.0,1.0,96,0.00,CLR,,0.00,0.0,WeatherDisplay:10.37,2013-05-03 16:10:00,
2013-05-04 02:20:00,64.4,63.5,30.07,SE,135,0.0,2.0,97,0.00,CLR,,0.00,0.0,WeatherDisplay:10.37,2013-05-03 16:20:00,
2013-05-04 02:25:00,64.4,63.5,30.07,SE,135,1.0,2.0,97,0.00,CLR,,0.00,0.0,WeatherDisplay:10.37,2013-05-03 16:25:00,
2013-05-04 02:30:00,64.0,62.9,30.06,SE,135,0.0,1.0,96,0.00,CLR,,0.00,0.0,WeatherDisplay:10.37,2013-05-03 16:30:00,
2013-05-04 02:35:00,63.7,62.5,30.06,ESE,120,0.0,1.0,96,0.00,CLR,,0.00,0.0,WeatherDisplay:10.37,2013-05-03 16:35:00,
2013-05-04 02:40:00,63.9,63.0,30.06,SE,139,0.0,0.0,97,0.00,CLR,,0.00,0.0,WeatherDisplay:10.37,2013-05-03 16:40:00,
2013-05-04 02:45:00,63.5,62.6,30.06,West,259,0.0,0.0,97,0.00,CLR,,0.00,0.0,WeatherDisplay:10.37,2013-05-03 16:45:00,
2013-05-04 02:50:00,63.5,62.6,30.06,West,262,0.0,0.0,97,0.00,CLR,,0.00,0.0,WeatherDisplay:10.37,2013-05-03 16:50:00,
2013-05-04 02:55:00,63.5,62.6,30.06,West,270,0.0,0.0,97,0.00,CLR,,0.00,0.0,WeatherDisplay:10.37,2013-05-03 16:55:00,
2013-05-04 03:00:00,63.5,62.6,30.06,WNW,298,0.0,0.0,97,0.00,CLR,,0.00,0.0,WeatherDisplay:10.37,2013-05-03 17:00:00,
2013-05-04 03:05:00,63.5,62.6,30.06,NNW,348,0.0,0.0,97,0.00,CLR,,0.00,0.0,WeatherDisplay:10.37,2013-05-03 17:05:00,
2013-05-04 03:10:00,63.1,62.3,30.06,North,0,0.0,0.0,97,0.00,CLR,,0.00,0.0,WeatherDisplay:10.37,2013-05-03 17:10:00,
2013-05-04 03:15:00,63.0,62.2,30.06,North,0,0.0,0.0,97,0.00,CLR,,0.00,0.0,WeatherDisplay:10.37,2013-05-03 17:15:00,
2013-05-04 03:20:00,62.8,61.9,30.06,SW,219,1.0,2.0,97,0.00,CLR,,0.00,0.0,WeatherDisplay:10.37,2013-05-03 17:20:00,
2013-05-04 03:25:00,62.8,61.9,30.06,WSW,239,0.0,2.0,97,0.00,CLR,,0.00,0.0,WeatherDisplay:10.37,2013-05-03 17:25:00,
2013-05-04 03:30:00,62.8,61.9,30.06,WNW,293,0.0,1.0,97,0.00,CLR,,0.00,0.0,WeatherDisplay:10.37,2013-05-03 17:30:00,
2013-05-04 03:35:00,62.8,61.9,30.06,NW,315,0.0,0.0,97,0.00,CLR,,0.00,0.0,WeatherDisplay:10.37,2013-05-03 17:35:00,
2013-05-04 03:40:00,62.6,61.7,30.06,WNW,301,0.0,2.0,97,0.00,CLR,,0.00,0.0,WeatherDisplay:10.37,2013-05-03 17:40:00,
2013-05-04 03:45:00,62.6,61.7,30.06,WSW,255,0.0,1.0,97,0.00,CLR,,0.00,0.0,WeatherDisplay:10.37,2013-05-03 17:45:00,
2013-05-04 03:50:00,62.4,61.9,30.05,West,263,0.0,0.0,98,0.00,CLR,,0.00,0.0,WeatherDisplay:10.37,2013-05-03 17:50:00,
2013-05-04 03:55:00,62.6,61.7,30.06,West,270,0.0,1.0,97,0.00,CLR,,0.00,0.0,WeatherDisplay:10.37,2013-05-03 17:55:00,
2013-05-04 04:00:00,62.6,61.7,30.05,West,270,0.0,0.0,97,0.00,CLR,,0.00,0.0,WeatherDisplay:10.37,2013-05-03 18:00:00,
2013-05-04 04:05:00,62.4,61.8,30.05,WSW,238,0.0,0.0,98,0.00,CLR,,0.00,0.0,WeatherDisplay:10.37,2013-05-03 18:05:00,
2013-05-04 04:10:00,62.2,61.7,30.05,South,189,0.0,0.0,98,0.00,CLR,,0.00,0.0,WeatherDisplay:10.37,2013-05-03 18:10:00,
2013-05-04 04:15:00,62.1,61.5,30.05,South,180,0.0,0.0,98,0.00,CLR,,0.00,0.0,WeatherDisplay:10.37,2013-05-03 18:15:00,
2013-05-04 04:20:00,62.1,61.5,30.06,South,180,0.0,2.0,98,0.00,CLR,,0.00,0.0,WeatherDisplay:10.37,2013-05-03 18:20:00,
2013-05-04 04:25:00,62.2,61.7,30.06,North,0,0.0,2.0,98,0.00,CLR,,0.00,0.0,WeatherDisplay:10.37,2013-05-03 18:25:00,
2013-05-04 04:30:00,62.1,61.5,30.06,North,0,1.0,2.0,98,0.00,CLR,,0.00,0.0,WeatherDisplay:10.37,2013-05-03 18:30:00,
2013-05-04 04:35:00,62.1,61.5,30.06,North,0,0.0,2.0,98,0.00,CLR,,0.00,0.0,WeatherDisplay:10.37,2013-05-03 18:35:00,
2013-05-04 04:40:00,61.7,61.1,30.06,North,0,2.0,3.0,98,0.00,CLR,,0.00,0.0,WeatherDisplay:10.37,2013-05-03 18:40:00,
2013-05-04 04:50:00,61.7,61.1,30.07,NW,318,0.0,1.0,98,0.00,CLR,,0.00,0.0,WeatherDisplay:10.37,2013-05-03 18:50:00,
2013-05-04 04:55:00,61.7,61.1,30.06,NNW,343,0.0,0.0,98,0.00,CLR,,0.00,0.0,WeatherDisplay:10.37,2013-05-03 18:55:00,
2013-05-04 05:00:00,61.5,61.0,30.06,North,359,0.0,0.0,98,0.00,CLR,,0.00,0.0,WeatherDisplay:10.37,2013-05-03 19:00:00,
2013-05-04 05:05:00,61.5,61.0,30.06,NNW,332,0.0,0.0,98,0.00,CLR,,0.00,0.0,WeatherDisplay:10.37,2013-05-03 19:05:00,
2013-05-04 05:10:00,61.5,61.0,30.06,WNW,297,0.0,0.0,98,0.00,CLR,,0.00,0.0,WeatherDisplay:10.37,2013-05-03 19:10:00,
2013-05-04 05:15:00,61.3,60.8,30.06,WNW,301,0.0,0.0,98,0.00,CLR,,0.00,0.0,WeatherDisplay:10.37,2013-05-03 19:15:00,
2013-05-04 05:20:00,61.3,60.7,30.06,NW,315,0.0,0.0,98,0.00,CLR,,0.00,0.0,WeatherDisplay:10.37,2013-05-03 19:20:00,
2013-05-04 05:25:00,61.3,60.8,30.06,NW,315,0.0,0.0,98,0.00,CLR,,0.00,0.0,WeatherDisplay:10.37,2013-05-03 19:25:00,
2013-05-04 05:30:00,61.3,60.8,30.06,NW,315,0.0,0.0,98,0.00,CLR,,0.00,0.0,WeatherDisplay:10.37,2013-05-03 19:30:00,
2013-05-04 05:40:00,61.3,60.8,30.07,NW,315,0.0,0.0,98,0.00,CLR,,0.00,0.0,WeatherDisplay:10.37,2013-05-03 19:40:00,
2013-05-04 05:45:00,61.2,60.7,30.07,NW,315,0.0,0.0,98,0.00,CLR,,0.00,0.0,WeatherDisplay:10.37,2013-05-03 19:45:00,
2013-05-04 05:50:00,61.2,60.6,30.08,NW,315,0.0,2.0,98,0.00,CLR,,0.00,0.0,WeatherDisplay:10.37,2013-05-03 19:50:00,
2013-05-04 05:55:00,61.2,60.6,30.08,NW,315,0.0,1.0,98,0.00,CLR,,0.00,0.0,WeatherDisplay:10.37,2013-05-03 19:55:00,
2013-05-04 06:00:00,61.2,60.6,30.08,NW,315,0.0,2.0,98,0.00,CLR,,0.00,0.0,WeatherDisplay:10.37,2013-05-03 20:00:00,
2013-05-04 06:05:00,61.2,60.6,30.08,NW,315,0.0,1.0,98,0.00,CLR,,0.00,0.0,WeatherDisplay:10.37,2013-05-03 20:05:00,
2013-05-04 06:10:00,61.2,60.6,30.08,NW,315,0.0,0.0,98,0.00,CLR,,0.00,0.0,WeatherDisplay:10.37,2013-05-03 20:10:00,
2013-05-04 06:15:00,61.2,60.6,30.08,NW,325,1.0,2.0,98,0.00,CLR,,0.00,0.0,WeatherDisplay:10.37,2013-05-03 20:15:00,
2013-05-04 06:20:00,61.2,60.6,30.08,North,349,0.0,1.0,98,0.00,CLR,,0.00,0.0,WeatherDisplay:10.37,2013-05-03 20:20:00,
2013-05-04 06:25:00,61.0,60.4,30.08,North,0,0.0,0.0,98,0.00,CLR,,0.00,0.0,WeatherDisplay:10.37,2013-05-03 20:25:00,
2013-05-04 06:30:00,61.0,60.4,30.08,NNW,328,0.0,2.0,98,0.00,CLR,,0.00,0.0,WeatherDisplay:10.37,2013-05-03 20:30:00,
2013-05-04 06:35:00,61.0,60.4,30.08,West,272,0.0,2.0,98,0.00,CLR,,0.00,3.9,WeatherDisplay:10.37,2013-05-03 20:35:00,
2013-05-04 06:40:00,61.0,60.5,30.09,West,270,0.0,2.0,98,0.00,CLR,,0.00,10.5,WeatherDisplay:10.37,2013-05-03 20:40:00,
2013-05-04 06:45:00,61.2,60.6,30.09,WNW,283,1.0,2.0,98,0.00,BKN,,0.00,13.5,WeatherDisplay:10.37,2013-05-03 20:45:00,
2013-05-04 06:50:00,61.2,60.6,30.09,NW,305,0.0,2.0,98,0.00,BKN,,0.00,36.1,WeatherDisplay:10.37,2013-05-03 20:50:00,
2013-05-04 06:55:00,61.8,61.2,30.09,NW,315,0.0,1.0,98,0.00,BKN,,0.00,29.8,WeatherDisplay:10.37,2013-05-03 20:55:00,
2013-05-04 07:00:00,62.1,61.5,30.09,NW,315,0.0,0.0,98,0.00,BKN,,0.00,38.6,WeatherDisplay:10.37,2013-05-03 21:00:00,
2013-05-04 07:05:00,62.4,61.8,30.10,NNW,344,1.0,4.0,98,0.00,BKN,,0.00,67.5,WeatherDisplay:10.37,2013-05-03 21:05:00,
2013-05-04 07:10:00,63.4,62.6,30.10,North,3,0.0,2.0,97,0.00,SCT,,0.00,80.6,WeatherDisplay:10.37,2013-05-03 21:10:00,
2013-05-04 07:15:00,64.9,64.6,30.10,North,0,1.0,2.0,99,0.00,BKN,,0.00,63.7,WeatherDisplay:10.37,2013-05-03 21:15:00,
2013-05-04 07:20:00,64.9,64.6,30.11,North,0,0.0,2.0,99,0.00,CLR,,0.00,107.7,WeatherDisplay:10.37,2013-05-03 21:20:00,
2013-05-04 07:25:00,66.5,66.2,30.10,North,0,0.0,2.0,99,0.00,CLR,,0.00,111.0,WeatherDisplay:10.37,2013-05-03 21:25:00,
2013-05-04 07:30:00,68.5,67.6,30.11,North,0,0.0,1.0,97,0.00,CLR,,0.00,94.0,WeatherDisplay:10.37,2013-05-03 21:30:00,
2013-05-04 07:35:00,71.1,69.3,30.11,North,0,0.0,0.0,94,0.00,CLR,,0.00,78.0,WeatherDisplay:10.37,2013-05-03 21:35:00,
2013-05-04 07:40:00,72.3,68.5,30.11,NNE,29,0.0,0.0,88,0.00,CLR,,0.00,62.0,WeatherDisplay:10.37,2013-05-03 21:40:00,
2013-05-04 07:45:00,73.3,68.5,30.11,ESE,112,0.0,0.0,85,0.00,CLR,,0.00,46.0,WeatherDisplay:10.37,2013-05-03 21:45:00,
2013-05-04 07:50:00,74.5,67.9,30.12,SE,135,0.0,0.0,80,0.00,CLR,,0.00,31.0,WeatherDisplay:10.37,2013-05-03 21:50:00,
2013-05-04 07:55:00,75.6,67.8,30.12,NW,315,0.0,0.0,77,0.00,CLR,,0.00,17.0,WeatherDisplay:10.37,2013-05-03 21:55:00,
2013-05-04 08:00:00,76.1,67.6,30.12,NW,315,0.0,0.0,75,0.00,CLR,,0.00,3.0,WeatherDisplay:10.37,2013-05-03 22:00:00,
2013-05-04 08:05:00,75.5,67.4,30.12,NW,321,0.0,0.0,76,0.00,OVC,,0.00,386.0,WeatherDisplay:10.37,2013-05-03 22:05:00,
2013-05-04 08:10:00,75.7,68.0,30.12,NNW,329,0.0,0.0,77,0.00,OVC,,0.00,155.0,WeatherDisplay:10.37,2013-05-03 22:10:00,
2013-05-04 08:15:00,74.8,67.5,30.12,NW,313,0.0,0.0,78,0.00,OVC,,0.00,162.3,WeatherDisplay:10.37,2013-05-03 22:15:00,
2013-05-04 08:20:00,73.9,67.4,30.13,WNW,285,0.0,0.0,80,0.00,OVC,,0.00,197.7,WeatherDisplay:10.37,2013-05-03 22:20:00,
2013-05-04 08:25:00,73.3,67.1,30.13,WSW,251,0.0,0.0,81,0.00,OVC,,0.00,208.4,WeatherDisplay:10.37,2013-05-03 22:25:00,
2013-05-04 08:30:00,73.2,67.0,30.13,SSW,206,0.0,0.0,81,0.00,OVC,,0.00,248.2,WeatherDisplay:10.37,2013-05-03 22:30:00,
2013-05-04 08:35:00,73.8,67.6,30.13,SSE,149,0.0,0.0,81,0.00,OVC,,0.00,603.5,WeatherDisplay:10.37,2013-05-03 22:35:00,
2013-05-04 08:40:00,79.1,70.5,30.13,SE,135,0.0,0.0,75,0.00,OVC,,0.00,309.9,WeatherDisplay:10.37,2013-05-03 22:40:00,
2013-05-04 08:45:00,82.4,69.4,30.13,SSE,155,0.0,4.0,65,0.00,OVC,,0.00,596.5,WeatherDisplay:10.37,2013-05-03 22:45:00,
2013-05-04 08:50:00,79.9,66.1,30.13,SSE,150,1.0,6.0,63,0.00,OVC,,0.00,622.3,WeatherDisplay:10.37,2013-05-03 22:50:00,
2013-05-04 08:55:00,79.3,66.5,30.13,SE,141,3.0,7.0,65,0.00,OVC,,0.00,655.2,WeatherDisplay:10.37,2013-05-03 22:55:00,
2013-05-04 09:00:00,78.2,66.8,30.14,SE,144,8.0,12.0,68,0.00,OVC,,0.00,802.5,WeatherDisplay:10.37,2013-05-03 23:00:00,
2013-05-04 09:05:00,77.4,67.7,30.14,SE,135,2.0,8.0,72,0.00,OVC,,0.00,763.0,WeatherDisplay:10.37,2013-05-03 23:05:00,
2013-05-04 09:10:00,78.9,67.8,30.14,SE,124,6.0,10.0,69,0.00,OVC,,0.00,799.3,WeatherDisplay:10.37,2013-05-03 23:10:00,
2013-05-04 09:15:00,79.2,66.9,30.14,ESE,107,13.0,17.0,66,0.00,OVC,,0.00,806.5,WeatherDisplay:10.37,2013-05-03 23:15:00,
2013-05-04 09:20:00,78.3,66.8,30.14,East,100,10.0,20.0,68,0.00,OVC,,0.00,865.7,WeatherDisplay:10.37,2013-05-03 23:20:00,
2013-05-04 09:30:00,79.2,66.4,30.14,ESE,105,10.0,15.0,65,0.00,OVC,,0.00,874.5,WeatherDisplay:10.37,2013-05-03 23:30:00,
2013-05-04 09:35:00,78.8,66.0,30.14,ESE,112,10.0,17.0,65,0.00,OVC,,0.00,906.8,WeatherDisplay:10.37,2013-05-03 23:35:00,
2013-05-04 09:40:00,79.6,66.8,30.15,ESE,114,12.0,21.0,65,0.00,OVC,,0.00,945.7,WeatherDisplay:10.37,2013-05-03 23:40:00,
2013-05-04 09:45:00,79.2,65.9,30.14,ESE,106,13.0,21.0,64,0.00,OVC,,0.00,948.3,WeatherDisplay:10.37,2013-05-03 23:45:00,
2013-05-04 09:50:00,79.0,66.2,30.14,ESE,121,8.0,20.0,65,0.00,OVC,,0.00,958.2,WeatherDisplay:10.37,2013-05-03 23:50:00,
2013-05-04 09:55:00,79.5,66.2,30.14,SE,127,14.0,21.0,64,0.00,OVC,,0.00,991.3,WeatherDisplay:10.37,2013-05-03 23:55:00,
2013-05-04 10:00:00,79.3,66.1,30.14,ESE,115,14.0,20.0,64,0.00,OVC,,0.00,1004.6,WeatherDisplay:10.37,2013-05-04 00:00:00,
2013-05-04 10:05:00,78.9,65.7,30.14,SE,125,18.0,24.0,64,0.00,OVC,,0.00,1042.3,WeatherDisplay:10.37,2013-05-04 00:05:00,
2013-05-04 10:10:00,78.8,65.6,30.14,SE,139,16.0,28.0,64,0.00,OVC,,0.00,1164.7,WeatherDisplay:10.37,2013-05-04 00:10:00,
2013-05-04 10:15:00,79.6,66.4,30.13,SE,131,14.0,18.0,64,0.00,OVC,,0.00,1140.0,WeatherDisplay:10.37,2013-05-04 00:15:00,
2013-05-04 10:20:00,79.8,66.1,30.13,SE,134,15.0,21.0,63,0.00,OVC,,0.00,260.8,WeatherDisplay:10.37,2013-05-04 00:20:00,
2013-05-04 10:25:00,78.5,66.7,30.13,SE,134,13.0,21.0,67,0.00,OVC,,0.00,1142.4,WeatherDisplay:10.37,2013-05-04 00:25:00,
2013-05-04 10:30:00,80.2,66.9,30.13,ESE,119,13.0,21.0,64,0.00,OVC,,0.00,1157.2,WeatherDisplay:10.37,2013-05-04 00:30:00,
2013-05-04 10:35:00,80.7,66.5,30.12,ESE,109,10.0,16.0,62,0.00,OVC,,0.00,1207.5,WeatherDisplay:10.37,2013-05-04 00:35:00,
2013-05-04 10:40:00,80.8,66.6,30.12,ESE,113,9.0,15.0,62,0.00,OVC,,0.00,505.3,WeatherDisplay:10.37,2013-05-04 00:40:00,
2013-05-04 10:45:00,79.8,66.6,30.12,ESE,113,6.0,16.0,64,0.00,OVC,,0.00,448.2,WeatherDisplay:10.37,2013-05-04 00:45:00,
2013-05-04 10:50:00,79.1,66.8,30.12,ESE,102,10.0,15.0,66,0.00,OVC,,0.00,1315.5,WeatherDisplay:10.37,2013-05-04 00:50:00,
2013-05-04 11:00:00,78.3,66.4,30.11,ESE,117,5.0,13.0,67,0.00,OVC,,0.00,308.6,WeatherDisplay:10.37,2013-05-04 01:00:00,
2013-05-04 11:05:00,78.9,67.1,30.11,ESE,123,10.0,14.0,67,0.00,OVC,,0.00,577.0,WeatherDisplay:10.37,2013-05-04 01:05:00,
2013-05-04 11:10:00,79.0,66.7,30.11,ESE,116,8.0,13.0,66,0.00,OVC,,0.00,1220.8,WeatherDisplay:10.37,2013-05-04 01:10:00,
2013-05-04 11:15:00,79.3,67.0,30.11,SE,134,6.0,13.0,66,0.00,OVC,,0.00,289.7,WeatherDisplay:10.37,2013-05-04 01:15:00,
2013-05-04 11:20:00,79.2,66.8,30.10,SSE,147,6.0,13.0,66,0.00,OVC,,0.00,362.0,WeatherDisplay:10.37,2013-05-04 01:20:00,
2013-05-04 11:25:00,79.4,68.0,30.10,SE,128,13.0,18.0,68,0.00,OVC,,0.00,388.1,WeatherDisplay:10.37,2013-05-04 01:25:00,
2013-05-04 11:30:00,78.4,67.0,30.10,SE,124,10.0,18.0,68,0.00,OVC,,0.00,306.4,WeatherDisplay:10.37,2013-05-04 01:30:00,
2013-05-04 11:35:00,78.2,67.6,30.09,SE,125,8.0,13.0,70,0.00,OVC,,0.00,485.9,WeatherDisplay:10.37,2013-05-04 01:35:00,
2013-05-04 11:40:00,79.6,68.6,30.09,SE,129,9.0,17.0,69,0.00,OVC,,0.00,1394.5,WeatherDisplay:10.37,2013-05-04 01:40:00,
2013-05-04 11:45:00,81.4,68.1,30.09,ESE,110,3.0,14.0,64,0.00,OVC,,0.00,899.0,WeatherDisplay:10.37,2013-05-04 01:45:00,
2013-05-04 11:50:00,82.0,67.7,30.09,East,100,9.0,12.0,62,0.00,OVC,,0.00,397.6,WeatherDisplay:10.37,2013-05-04 01:50:00,
2013-05-04 11:55:00,80.6,66.9,30.08,ESE,119,8.0,14.0,63,0.00,OVC,,0.00,1617.4,WeatherDisplay:10.37,2013-05-04 01:55:00,
2013-05-04 12:00:00,81.2,67.9,30.08,ESE,111,10.0,15.0,64,0.00,OVC,,0.00,548.8,WeatherDisplay:10.37,2013-05-04 02:00:00,
2013-05-04 12:05:00,79.7,67.4,30.08,ESE,117,8.0,13.0,66,0.00,OVC,,0.00,465.7,WeatherDisplay:10.37,2013-05-04 02:05:00,
2013-05-04 12:10:00,80.4,68.5,30.08,SE,132,6.0,10.0,67,0.00,OVC,,0.00,1568.8,WeatherDisplay:10.37,2013-05-04 02:10:00,
2013-05-04 12:20:00,83.0,67.7,30.08,ENE,71,12.0,20.0,60,0.00,OVC,,0.00,1675.5,WeatherDisplay:10.37,2013-05-04 02:20:00,
2013-05-04 12:25:00,83.4,69.0,30.08,ENE,61,10.0,17.0,62,0.00,OVC,,0.00,739.1,WeatherDisplay:10.37,2013-05-04 02:25:00,
2013-05-04 12:30:00,81.3,67.1,30.08,ENE,74,8.0,18.0,62,0.00,OVC,,0.00,1595.5,WeatherDisplay:10.37,2013-05-04 02:30:00,
2013-05-04 12:40:00,83.1,67.8,30.07,SE,131,7.0,15.0,60,0.00,OVC,,0.00,1432.4,WeatherDisplay:10.37,2013-05-04 02:40:00,
2013-05-04 12:45:00,82.8,66.5,30.06,SE,133,7.0,15.0,58,0.00,OVC,,0.00,1513.0,WeatherDisplay:10.37,2013-05-04 02:45:00,
2013-05-04 12:50:00,84.0,67.7,30.06,ESE,105,8.0,13.0,58,0.00,OVC,,0.00,1557.6,WeatherDisplay:10.37,2013-05-04 02:50:00,
2013-05-04 12:55:00,82.1,66.3,30.06,ENE,71,12.0,16.0,59,0.00,OVC,,0.00,1334.0,WeatherDisplay:10.37,2013-05-04 02:55:00,
2013-05-04 13:00:00,82.0,67.3,30.06,ENE,63,10.0,17.0,61,0.00,OVC,,0.00,1309.2,WeatherDisplay:10.37,2013-05-04 03:00:00,
2013-05-04 13:05:00,82.0,67.3,30.06,NE,55,10.0,18.0,61,0.00,OVC,,0.00,1331.3,WeatherDisplay:10.37,2013-05-04 03:05:00,
2013-05-04 13:10:00,82.9,67.1,30.06,East,83,12.0,18.0,59,0.00,OVC,,0.00,1365.0,WeatherDisplay:10.37,2013-05-04 03:10:00,
2013-05-04 13:15:00,82.9,68.1,30.06,East,93,12.0,17.0,61,0.00,OVC,,0.00,1402.3,WeatherDisplay:10.37,2013-05-04 03:15:00,
2013-05-04 13:20:00,82.4,67.6,30.06,East,84,6.0,17.0,61,0.00,OVC,,0.00,1591.9,WeatherDisplay:10.37,2013-05-04 03:20:00,
2013-05-04 13:25:00,82.0,67.7,30.06,East,90,7.0,14.0,62,0.00,OVC,,0.00,1522.1,WeatherDisplay:10.37,2013-05-04 03:25:00,
2013-05-04 13:30:00,82.4,68.6,30.06,East,98,10.0,17.0,63,0.00,OVC,,0.00,394.3,WeatherDisplay:10.37,2013-05-04 03:30:00,
2013-05-04 13:35:00,80.7,67.3,30.05,East,84,9.0,17.0,64,0.00,OVC,,0.00,1320.7,WeatherDisplay:10.37,2013-05-04 03:35:00,
2013-05-04 13:40:00,81.6,67.8,30.05,ENE,78,6.0,17.0,63,0.00,OVC,,0.00,1257.2,WeatherDisplay:10.37,2013-05-04 03:40:00,
2013-05-04 13:45:00,82.4,67.1,30.05,East,100,12.0,14.0,60,0.00,OVC,,0.00,1221.9,WeatherDisplay:10.37,2013-05-04 03:45:00,
2013-05-04 13:50:00,81.9,67.2,30.04,East,97,9.0,17.0,61,0.00,OVC,,0.00,1163.5,WeatherDisplay:10.37,2013-05-04 03:50:00,
2013-05-04 13:55:00,82.0,67.7,30.04,East,87,7.0,15.0,62,0.00,OVC,,0.00,1051.2,WeatherDisplay:10.37,2013-05-04 03:55:00,
2013-05-04 14:00:00,82.4,67.1,30.04,ESE,112,8.0,15.0,60,0.00,OVC,,0.00,1172.5,WeatherDisplay:10.37,2013-05-04 04:00:00,
2013-05-04 14:05:00,83.1,67.3,30.04,East,96,9.0,15.0,59,0.00,OVC,,0.00,1164.5,WeatherDisplay:10.37,2013-05-04 04:05:00,
2013-05-04 14:10:00,82.0,67.7,30.04,ENE,67,12.0,21.0,62,0.00,OVC,,0.00,1147.5,WeatherDisplay:10.37,2013-05-04 04:10:00,
2013-05-04 14:15:00,82.4,68.1,30.03,ENE,69,8.0,20.0,62,0.00,OVC,,0.00,1145.9,WeatherDisplay:10.37,2013-05-04 04:15:00,
2013-05-04 14:20:00,81.6,68.2,30.04,East,82,14.0,18.0,64,0.00,OVC,,0.00,1099.1,WeatherDisplay:10.37,2013-05-04 04:20:00,
2013-05-04 14:25:00,80.7,68.3,30.03,ENE,68,8.0,17.0,66,0.00,OVC,,0.00,1088.2,WeatherDisplay:10.37,2013-05-04 04:25:00,
2013-05-04 14:30:00,80.1,69.0,30.04,ENE,77,10.0,20.0,69,0.00,OVC,,0.00,1049.9,WeatherDisplay:10.37,2013-05-04 04:30:00,
2013-05-04 14:35:00,80.4,69.3,30.03,East,93,6.0,17.0,69,0.00,OVC,,0.00,1034.6,WeatherDisplay:10.37,2013-05-04 04:35:00,
2013-05-04 14:40:00,81.1,68.7,30.03,ENE,75,7.0,15.0,66,0.00,OVC,,0.00,1020.3,WeatherDisplay:10.37,2013-05-04 04:40:00,
2013-05-04 14:45:00,80.6,68.2,30.03,NE,53,10.0,18.0,66,0.00,OVC,,0.00,999.9,WeatherDisplay:10.37,2013-05-04 04:45:00,
2013-05-04 14:50:00,79.9,68.8,30.03,NE,49,10.0,16.0,69,0.00,OVC,,0.00,1009.9,WeatherDisplay:10.37,2013-05-04 04:50:00,
2013-05-04 14:55:00,80.1,69.4,30.03,ENE,71,12.0,17.0,70,0.00,OVC,,0.00,1042.8,WeatherDisplay:10.37,2013-05-04 04:55:00,
2013-05-04 15:00:00,80.4,69.7,30.03,East,82,8.0,17.0,70,0.00,OVC,,0.00,968.2,WeatherDisplay:10.37,2013-05-04 05:00:00,
2013-05-04 15:05:00,79.9,68.8,30.03,East,87,7.0,17.0,69,0.00,OVC,,0.00,923.2,WeatherDisplay:10.37,2013-05-04 05:05:00,
2013-05-04 15:10:00,79.6,68.9,30.03,East,86,9.0,17.0,70,0.00,OVC,,0.00,902.9,WeatherDisplay:10.37,2013-05-04 05:10:00,
2013-05-04 15:15:00,79.5,68.5,30.03,ENE,72,13.0,18.0,69,0.00,OVC,,0.00,866.2,WeatherDisplay:10.37,2013-05-04 05:15:00,
2013-05-04 15:20:00,79.4,68.3,30.03,ENE,74,10.0,17.0,69,0.00,OVC,,0.00,852.4,WeatherDisplay:10.37,2013-05-04 05:20:00,
2013-05-04 15:25:00,79.5,68.0,30.03,East,87,14.0,20.0,68,0.00,OVC,,0.00,799.5,WeatherDisplay:10.37,2013-05-04 05:25:00,
2013-05-04 15:30:00,79.3,67.9,30.03,East,96,8.0,20.0,68,0.00,OVC,,0.00,783.7,WeatherDisplay:10.37,2013-05-04 05:30:00,
2013-05-04 15:35:00,79.5,67.6,30.03,ESE,107,8.0,20.0,67,0.00,OVC,,0.00,759.4,WeatherDisplay:10.37,2013-05-04 05:35:00,
2013-05-04 15:40:00,79.5,67.5,30.03,ESE,102,8.0,15.0,67,0.00,OVC,,0.00,739.4,WeatherDisplay:10.37,2013-05-04 05:40:00,
2013-05-04 15:45:00,79.5,67.6,30.03,East,81,12.0,17.0,67,0.00,OVC,,0.00,703.7,WeatherDisplay:10.37,2013-05-04 05:45:00,
2013-05-04 15:50:00,79.2,67.7,30.03,East,87,8.0,17.0,68,0.00,OVC,,0.00,694.7,WeatherDisplay:10.37,2013-05-04 05:50:00,
2013-05-04 15:55:00,79.3,67.8,30.03,East,92,7.0,13.0,68,0.00,OVC,,0.00,659.4,WeatherDisplay:10.37,2013-05-04 05:55:00,
2013-05-04 16:00:00,79.4,68.0,30.03,East,79,6.0,12.0,68,0.00,CLR,,0.00,659.8,WeatherDisplay:10.37,2013-05-04 06:00:00,
2013-05-04 16:05:00,79.5,68.0,30.03,ESE,102,8.0,14.0,68,0.00,CLR,,0.00,637.9,WeatherDisplay:10.37,2013-05-04 06:05:00,
2013-05-04 16:10:00,79.7,67.8,30.03,SE,131,6.0,12.0,67,0.00,CLR,,0.00,591.8,WeatherDisplay:10.37,2013-05-04 06:10:00,
2013-05-04 16:15:00,79.7,67.8,30.03,ESE,109,7.0,10.0,67,0.00,CLR,,0.00,634.8,WeatherDisplay:10.37,2013-05-04 06:15:00,
2013-05-04 16:20:00,79.5,67.6,30.03,East,81,6.0,13.0,67,0.00,CLR,,0.00,139.7,WeatherDisplay:10.37,2013-05-04 06:20:00,
2013-05-04 16:25:00,77.6,67.5,30.04,East,94,6.0,10.0,71,0.00,CLR,,0.00,254.9,WeatherDisplay:10.37,2013-05-04 06:25:00,
2013-05-04 16:30:00,77.5,68.2,30.04,ESE,113,3.0,8.0,73,0.00,CLR,,0.00,322.4,WeatherDisplay:10.37,2013-05-04 06:30:00,
2013-05-04 16:35:00,77.7,68.4,30.03,ESE,119,6.0,10.0,73,0.00,CLR,,0.00,394.5,WeatherDisplay:10.37,2013-05-04 06:35:00,
2013-05-04 16:40:00,78.1,68.3,30.04,ESE,117,7.0,13.0,72,0.00,CLR,,0.00,150.5,WeatherDisplay:10.37,2013-05-04 06:40:00,
2013-05-04 16:45:00,77.2,67.0,30.04,ESE,106,5.0,13.0,71,0.00,CLR,,0.00,103.9,WeatherDisplay:10.37,2013-05-04 06:45:00,
2013-05-04 16:50:00,76.4,67.5,30.04,East,88,6.0,11.0,74,0.00,CLR,,0.00,93.0,WeatherDisplay:10.37,2013-05-04 06:50:00,
2013-05-04 16:55:00,75.7,67.2,30.05,ENE,76,6.0,10.0,75,0.00,CLR,,0.00,91.5,WeatherDisplay:10.37,2013-05-04 06:55:00,
2013-05-04 17:00:00,75.4,67.3,30.04,East,83,7.0,15.0,76,0.00,CLR,,0.00,58.3,WeatherDisplay:10.37,2013-05-04 07:00:00,
2013-05-04 17:05:00,74.5,67.2,30.05,ENE,73,7.0,15.0,78,0.00,CLR,,0.00,73.7,WeatherDisplay:10.37,2013-05-04 07:05:00,
2013-05-04 17:10:00,74.1,67.2,30.05,ENE,76,6.0,11.0,79,0.00,CLR,,0.00,82.1,WeatherDisplay:10.37,2013-05-04 07:10:00,
2013-05-04 17:15:00,74.1,67.2,30.05,ENE,74,6.0,9.0,79,0.00,CLR,,0.00,67.1,WeatherDisplay:10.37,2013-05-04 07:15:00,
2013-05-04 17:20:00,74.1,67.2,30.06,East,92,8.0,13.0,79,0.00,CLR,,0.00,45.7,WeatherDisplay:10.37,2013-05-04 07:20:00,
2013-05-04 17:25:00,74.1,67.2,30.05,ESE,102,6.0,11.0,79,0.00,CLR,,0.00,32.7,WeatherDisplay:10.37,2013-05-04 07:25:00,
2013-05-04 17:30:00,73.6,66.7,30.06,SE,129,12.0,17.0,79,0.00,CLR,,0.00,26.8,WeatherDisplay:10.37,2013-05-04 07:30:00,
2013-05-04 17:35:00,73.4,66.1,30.05,East,101,8.0,17.0,78,0.00,CLR,,0.00,20.0,WeatherDisplay:10.37,2013-05-04 07:35:00,
2013-05-04 17:40:00,73.0,66.1,30.06,East,97,8.0,15.0,79,0.00,CLR,,0.00,16.7,WeatherDisplay:10.37,2013-05-04 07:40:00,
2013-05-04 17:45:00,72.7,65.8,30.06,ESE,119,7.0,13.0,79,0.00,CLR,,0.00,11.8,WeatherDisplay:10.37,2013-05-04 07:45:00,
2013-05-04 17:50:00,72.5,66.0,30.06,SE,127,5.0,8.0,80,0.00,CLR,,0.00,8.2,WeatherDisplay:10.37,2013-05-04 07:50:00,
2013-05-04 17:55:00,72.3,66.2,30.06,SE,137,3.0,8.0,81,0.00,CLR,,0.00,4.4,WeatherDisplay:10.37,2013-05-04 07:55:00,
2013-05-04 18:00:00,72.3,66.1,30.06,ESE,120,1.0,6.0,81,0.00,CLR,,0.00,0.0,WeatherDisplay:10.37,2013-05-04 08:00:00,
2013-05-04 18:05:00,72.1,66.3,30.07,ENE,63,3.0,6.0,82,0.00,CLR,,0.00,0.0,WeatherDisplay:10.37,2013-05-04 08:05:00,
2013-05-04 18:10:00,71.8,66.0,30.07,NE,46,2.0,6.0,82,0.00,CLR,,0.00,0.0,WeatherDisplay:10.37,2013-05-04 08:10:00,
2013-05-04 18:15:00,71.6,65.8,30.07,ENE,60,2.0,4.0,82,0.00,CLR,,0.00,0.0,WeatherDisplay:10.37,2013-05-04 08:15:00,
2013-05-04 18:20:00,71.6,65.8,30.07,ENE,71,2.0,6.0,82,0.00,CLR,,0.00,0.0,WeatherDisplay:10.37,2013-05-04 08:20:00,
2013-05-04 18:25:00,71.8,65.3,30.07,ESE,105,3.0,9.0,80,0.00,CLR,,0.00,0.0,WeatherDisplay:10.37,2013-05-04 08:25:00,
2013-05-04 18:30:00,72.0,64.7,30.07,East,90,3.0,7.0,78,0.00,CLR,,0.00,0.0,WeatherDisplay:10.37,2013-05-04 08:30:00,
2013-05-04 18:35:00,72.0,64.7,30.07,East,87,5.0,8.0,78,0.00,CLR,,0.00,0.0,WeatherDisplay:10.37,2013-05-04 08:35:00,
2013-05-04 18:40:00,72.1,64.5,30.07,East,92,5.0,9.0,77,0.00,CLR,,0.00,0.0,WeatherDisplay:10.37,2013-05-04 08:40:00,
2013-05-04 18:45:00,72.1,64.5,30.07,East,83,6.0,9.0,77,0.00,CLR,,0.00,0.0,WeatherDisplay:10.37,2013-05-04 08:45:00,
2013-05-04 18:55:00,72.0,64.7,30.08,ESE,104,7.0,15.0,78,0.00,CLR,,0.00,0.0,WeatherDisplay:10.37,2013-05-04 08:55:00,
2013-05-04 19:00:00,71.7,64.9,30.07,ESE,112,5.0,13.0,79,0.00,CLR,,0.00,0.0,WeatherDisplay:10.37,2013-05-04 09:00:00,
2013-05-04 19:05:00,71.6,65.1,30.08,ESE,111,7.0,13.0,80,0.00,CLR,,0.00,0.0,WeatherDisplay:10.37,2013-05-04 09:05:00,
2013-05-04 19:10:00,71.6,65.1,30.08,ESE,106,7.0,10.0,80,0.00,CLR,,0.00,0.0,WeatherDisplay:10.37,2013-05-04 09:10:00,
2013-05-04 19:15:00,71.6,65.1,30.08,ESE,114,7.0,13.0,80,0.00,CLR,,0.00,0.0,WeatherDisplay:10.37,2013-05-04 09:15:00,
2013-05-04 19:20:00,71.4,65.6,30.08,ESE,117,6.0,10.0,82,0.00,CLR,,0.00,0.0,WeatherDisplay:10.37,2013-05-04 09:20:00,
2013-05-04 19:25:00,71.2,65.4,30.08,ESE,108,7.0,10.0,82,0.00,CLR,,0.00,0.0,WeatherDisplay:10.37,2013-05-04 09:25:00,
2013-05-04 19:30:00,70.9,65.5,30.09,ESE,109,5.0,10.0,83,0.00,CLR,,0.00,0.0,WeatherDisplay:10.37,2013-05-04 09:30:00,
2013-05-04 19:35:00,70.5,65.1,30.09,East,100,6.0,7.0,83,0.00,CLR,,0.00,0.0,WeatherDisplay:10.37,2013-05-04 09:35:00,
2013-05-04 19:40:00,70.5,65.4,30.09,ESE,117,6.0,9.0,84,0.00,CLR,,0.00,0.0,WeatherDisplay:10.37,2013-05-04 09:40:00,
2013-05-04 19:45:00,70.5,65.4,30.09,SE,128,6.0,8.0,84,0.00,CLR,,0.00,0.0,WeatherDisplay:10.37,2013-05-04 09:45:00,
2013-05-04 19:50:00,70.5,65.4,30.09,SE,124,5.0,9.0,84,0.00,CLR,,0.00,0.0,WeatherDisplay:10.37,2013-05-04 09:50:00,
2013-05-04 19:55:00,70.5,65.4,30.10,ESE,120,7.0,11.0,84,0.00,CLR,,0.00,0.0,WeatherDisplay:10.37,2013-05-04 09:55:00,
2013-05-04 20:00:00,70.7,65.6,30.09,ESE,123,5.0,10.0,84,0.00,CLR,,0.00,0.0,WeatherDisplay:10.37,2013-05-04 10:00:00,
2013-05-04 20:05:00,70.7,65.6,30.10,ESE,119,6.0,10.0,84,0.00,CLR,,0.00,0.0,WeatherDisplay:10.37,2013-05-04 10:05:00,
2013-05-04 20:10:00,70.5,65.5,30.10,ESE,107,3.0,10.0,84,0.00,CLR,,0.00,0.0,WeatherDisplay:10.37,2013-05-04 10:10:00,
2013-05-04 20:15:00,70.5,65.4,30.10,ESE,105,5.0,8.0,84,0.00,CLR,,0.00,0.0,WeatherDisplay:10.37,2013-05-04 10:15:00,
2013-05-04 20:20:00,70.4,65.6,30.10,ESE,110,3.0,6.0,85,0.00,CLR,,0.00,0.0,WeatherDisplay:10.37,2013-05-04 10:20:00,
2013-05-04 20:25:00,70.1,65.4,30.10,ESE,115,2.0,6.0,85,0.00,CLR,,0.00,0.0,WeatherDisplay:10.37,2013-05-04 10:25:00,
2013-05-04 20:30:00,69.8,65.1,30.10,ESE,102,2.0,4.0,85,0.00,CLR,,0.00,0.0,WeatherDisplay:10.37,2013-05-04 10:30:00,
2013-05-04 20:35:00,69.6,65.6,30.11,East,96,2.0,4.0,87,0.00,CLR,,0.00,0.0,WeatherDisplay:10.37,2013-05-04 10:35:00,
2013-05-04 20:40:00,69.4,65.4,30.11,East,95,1.0,3.0,87,0.00,CLR,,0.00,0.0,WeatherDisplay:10.37,2013-05-04 10:40:00,
2013-05-04 20:45:00,69.3,65.6,30.10,ENE,76,1.0,6.0,88,0.00,CLR,,0.00,0.0,WeatherDisplay:10.37,2013-05-04 10:45:00,
2013-05-04 20:50:00,69.3,65.6,30.10,ENE,65,2.0,4.0,88,0.00,CLR,,0.00,0.0,WeatherDisplay:10.37,2013-05-04 10:50:00,
2013-05-04 20:55:00,69.3,65.6,30.11,ENE,65,2.0,4.0,88,0.00,CLR,,0.00,0.0,WeatherDisplay:10.37,2013-05-04 10:55:00,
2013-05-04 21:00:00,69.1,65.4,30.10,ENE,60,2.0,4.0,88,0.00,CLR,,0.00,0.0,WeatherDisplay:10.37,2013-05-04 11:00:00,
2013-05-04 21:05:00,68.9,65.5,30.11,NE,53,0.0,3.0,89,0.00,CLR,,0.00,0.0,WeatherDisplay:10.37,2013-05-04 11:05:00,
2013-05-04 21:10:00,68.7,65.3,30.10,NE,48,0.0,2.0,89,0.00,CLR,,0.00,0.0,WeatherDisplay:10.37,2013-05-04 11:10:00,
2013-05-04 21:15:00,68.5,65.2,30.10,NE,45,0.0,0.0,89,0.00,CLR,,0.00,0.0,WeatherDisplay:10.37,2013-05-04 11:15:00,
2013-05-04 21:20:00,68.4,65.3,30.10,NE,45,0.0,0.0,90,0.00,CLR,,0.00,0.0,WeatherDisplay:10.37,2013-05-04 11:20:00,
2013-05-04 21:25:00,68.3,65.3,30.10,NNE,33,0.0,0.0,90,0.00,CLR,,0.00,0.0,WeatherDisplay:10.37,2013-05-04 11:25:00,
2013-05-04 21:30:00,68.0,65.6,30.11,North,9,1.0,2.0,92,0.00,CLR,,0.00,0.0,WeatherDisplay:10.37,2013-05-04 11:30:00,
2013-05-04 21:35:00,67.6,65.9,30.11,NNE,12,0.0,2.0,94,0.00,CLR,,0.00,0.0,WeatherDisplay:10.37,2013-05-04 11:35:00,
2013-05-04 21:40:00,67.6,65.9,30.11,NW,306,0.0,0.0,94,0.00,CLR,,0.00,0.0,WeatherDisplay:10.37,2013-05-04 11:40:00,
2013-05-04 21:45:00,67.5,65.7,30.11,WNW,282,1.0,2.0,94,0.00,CLR,,0.00,0.0,WeatherDisplay:10.37,2013-05-04 11:45:00,
2013-05-04 21:55:00,67.6,65.9,30.11,NNW,328,0.0,3.0,94,0.00,CLR,,0.00,0.0,WeatherDisplay:10.37,2013-05-04 11:55:00,
2013-05-04 22:00:00,67.6,66.2,30.10,East,83,0.0,2.0,95,0.00,CLR,,0.00,0.0,WeatherDisplay:10.37,2013-05-04 12:00:00,
2013-05-04 22:05:00,67.8,66.3,30.10,NNE,13,0.0,1.0,95,0.00,CLR,,0.00,0.0,WeatherDisplay:10.37,2013-05-04 12:05:00,
2013-05-04 22:10:00,68.0,66.2,30.10,NW,314,1.0,6.0,94,0.00,CLR,,0.00,0.0,WeatherDisplay:10.37,2013-05-04 12:10:00,
2013-05-04 22:20:00,68.2,66.1,30.11,West,279,1.0,2.0,93,0.00,CLR,,0.00,0.0,WeatherDisplay:10.37,2013-05-04 12:20:00,
2013-05-04 22:25:00,68.2,66.1,30.11,West,271,0.0,2.0,93,0.00,CLR,,0.00,0.0,WeatherDisplay:10.37,2013-05-04 12:25:00,
2013-05-04 22:30:00,68.2,66.1,30.10,West,270,0.0,0.0,93,0.00,CLR,,0.00,0.0,WeatherDisplay:10.37,2013-05-04 12:30:00,
2013-05-04 22:35:00,68.0,65.9,30.10,WSW,249,0.0,0.0,93,0.00,CLR,,0.00,0.0,WeatherDisplay:10.37,2013-05-04 12:35:00,
2013-05-04 22:40:00,68.0,65.9,30.10,SSW,198,0.0,0.0,93,0.00,CLR,,0.00,0.0,WeatherDisplay:10.37,2013-05-04 12:40:00,
2013-05-04 22:45:00,68.0,65.9,30.10,South,180,0.0,0.0,93,0.00,CLR,,0.00,0.0,WeatherDisplay:10.37,2013-05-04 12:45:00,
2013-05-04 22:50:00,68.0,65.9,30.10,South,184,0.0,0.0,93,0.00,CLR,,0.00,0.0,WeatherDisplay:10.37,2013-05-04 12:50:00,
2013-05-04 22:55:00,68.2,66.1,30.10,West,274,0.0,0.0,93,0.00,CLR,,0.00,0.0,WeatherDisplay:10.37,2013-05-04 12:55:00,
2013-05-04 23:00:00,68.2,66.1,30.10,NW,315,0.0,0.0,93,0.00,CLR,,0.00,0.0,WeatherDisplay:10.37,2013-05-04 13:00:00,
2013-05-04 23:05:00,68.3,66.2,30.10,NW,305,0.0,0.0,93,0.00,CLR,,0.00,0.0,WeatherDisplay:10.37,2013-05-04 13:05:00,
2013-05-04 23:10:00,68.2,66.1,30.10,WNW,287,0.0,0.0,93,0.00,CLR,,0.00,0.0,WeatherDisplay:10.37,2013-05-04 13:10:00,
2013-05-04 23:20:00,68.0,66.2,30.09,SW,218,0.0,2.0,94,0.00,CLR,,0.00,0.0,WeatherDisplay:10.37,2013-05-04 13:20:00,
2013-05-04 23:25:00,67.8,66.3,30.09,SW,220,0.0,0.0,95,0.00,CLR,,0.00,0.0,WeatherDisplay:10.37,2013-05-04 13:25:00,
2013-05-04 23:30:00,68.0,66.2,30.09,SSE,165,0.0,2.0,94,0.00,CLR,,0.00,0.0,WeatherDisplay:10.37,2013-05-04 13:30:00,
2013-05-04 23:35:00,68.5,66.4,30.09,NNW,332,3.0,5.0,93,0.00,CLR,,0.00,0.0,WeatherDisplay:10.37,2013-05-04 13:35:00,
2013-05-04 23:40:00,68.2,66.1,30.09,WNW,301,2.0,3.0,93,0.00,CLR,,0.00,0.0,WeatherDisplay:10.37,2013-05-04 13:40:00,
2013-05-04 23:45:00,68.0,65.9,30.09,WSW,249,1.0,4.0,93,0.00,CLR,,0.00,0.0,WeatherDisplay:10.37,2013-05-04 13:45:00,
2013-05-04 23:50:00,67.8,66.0,30.09,WSW,258,2.0,3.0,94,0.00,CLR,,0.00,0.0,WeatherDisplay:10.37,2013-05-04 13:50:00,
2013-05-04 23:55:00,67.6,66.2,30.09,WNW,292,1.0,3.0,95,0.00,CLR,,0.00,0.0,WeatherDisplay:10.37,2013-05-04 13:55:00,